»·PEaware :: NKS1261 KLAS-KSAN

NKS1261 :: KLAS-KSAN

FLIGHT INFORMATION

Flight Status: Arrived
Operator:
Spirit Airlines
More flights by this operator :: More flights under this callsign
Pilot: Lucas B. (17570)
Aircraft: AIRBUS A320
(A320)
More flights by this aircraft type
Origin: KLAS McCarran Intl
United States
Destination: KSAN San Diego Intl-Lindbergh
United States
More flights between these airports :: More routes between these airports
Route: BOACH8 LVELL LUCKI1
File this flight plan on PilotEdge
Remarks: RMK / SIMBRIEF
Altitude:
(Current/Filed)
28,000ft
Speed:
(Current/Filed)
438kts
Departed: 17-Jul-20 12:39 PM
Arrived: 17-Jul-20 01:25 PM
Distance/Time
Traveled:
225nm/0:46
Distance/Time
To Go:
Arrived

Flight Plot

Page will automatically refresh every two minutes.

Flight plan parsing failed; only flown route is shown


Map Options




Map Legend


Flown Route
Filed Route
Departure Airport
Arrival Airport
Navaid (VOR, NDB)
Fix

Horizontal Profiles

Position Reports

Time Latitude Longitude Heading Altitude Ground
Speed
17-Jul-20 12:19 36.084860 -115.153969 336 2190ft 0kts
17-Jul-20 12:20 36.084860 -115.153969 336 2190ft 0kts
17-Jul-20 12:21 36.084860 -115.153969 336 2190ft 0kts
17-Jul-20 12:22 36.084860 -115.153969 336 2190ft 0kts
17-Jul-20 12:23 36.084860 -115.153969 336 2190ft 0kts
17-Jul-20 12:24 36.084860 -115.153969 336 2190ft 0kts
17-Jul-20 12:25 36.084628 -115.153846 337 2190ft 2kts
17-Jul-20 12:26 36.084234 -115.153433 283 2190ft 2kts
17-Jul-20 12:27 36.084276 -115.153047 244 2190ft 0kts
17-Jul-20 12:28 36.084276 -115.153047 244 2190ft 0kts
17-Jul-20 12:29 36.084276 -115.153047 244 2190ft 0kts
17-Jul-20 12:30 36.084276 -115.153047 244 2190ft 0kts
17-Jul-20 12:31 36.083354 -115.155553 257 2190ft 8kts
17-Jul-20 12:32 36.086844 -115.157898 355 2190ft 14kts
17-Jul-20 12:33 36.090672 -115.155821 23 2190ft 15kts
17-Jul-20 12:34 36.094870 -115.153453 25 2190ft 17kts
17-Jul-20 12:35 36.097992 -115.152424 297 2190ft 2kts
17-Jul-20 12:36 36.098003 -115.152455 292 2190ft 0kts
17-Jul-20 12:37 36.098041 -115.152565 293 2190ft 5kts
17-Jul-20 12:38 36.096830 -115.154549 204 2190ft 49kts
17-Jul-20 12:39 36.063618 -115.175234 205 4090ft 180kts
17-Jul-20 12:40 36.009879 -115.216519 239 6324ft 261kts
17-Jul-20 12:41 35.960237 -115.300781 199 7098ft 276kts
17-Jul-20 12:42 35.882989 -115.312021 185 9743ft 289kts
17-Jul-20 12:43 35.796880 -115.308263 175 11480ft 345kts
17-Jul-20 12:44 35.695039 -115.296684 175 13092ft 379kts
17-Jul-20 12:45 35.588639 -115.298280 182 15115ft 390kts
17-Jul-20 12:46 35.479130 -115.302581 182 16885ft 401kts
17-Jul-20 12:47 35.366314 -115.307036 182 18421ft 412kts
17-Jul-20 12:48 35.249176 -115.311664 182 19611ft 425kts
17-Jul-20 12:49 35.131450 -115.316261 182 21168ft 427kts
17-Jul-20 12:50 35.011724 -115.320958 182 22573ft 433kts
17-Jul-20 12:51 34.890852 -115.325679 182 23904ft 439kts
17-Jul-20 12:52 34.768480 -115.337060 196 25073ft 446kts
17-Jul-20 12:53 34.650716 -115.388015 199 26149ft 453kts
17-Jul-20 12:54 34.531691 -115.439994 199 27129ft 460kts
17-Jul-20 12:55 34.410722 -115.492669 199 28063ft 462kts
17-Jul-20 12:56 34.293631 -115.553305 210 28099ft 462kts
17-Jul-20 12:57 34.181494 -115.628544 201 28100ft 461kts
17-Jul-20 12:58 34.063596 -115.684138 200 28095ft 460kts
17-Jul-20 12:59 33.952562 -115.736432 200 28092ft 460kts
17-Jul-20 13:00 33.834226 -115.793784 201 28070ft 461kts
17-Jul-20 13:01 33.716769 -115.850356 200 27338ft 450kts
17-Jul-20 13:02 33.601576 -115.904098 200 26319ft 443kts
17-Jul-20 13:03 33.499467 -115.974276 226 24399ft 424kts
17-Jul-20 13:04 33.432354 -116.087166 233 22251ft 408kts
17-Jul-20 13:05 33.369897 -116.194411 233 20158ft 392kts
17-Jul-20 13:06 33.292554 -116.276581 205 18054ft 371kts
17-Jul-20 13:07 33.201832 -116.329538 205 16020ft 356kts
17-Jul-20 13:08 33.114663 -116.380488 205 14037ft 345kts
17-Jul-20 13:09 33.031422 -116.429053 205 12986ft 313kts
17-Jul-20 13:10 32.964056 -116.486059 219 11856ft 296kts
17-Jul-20 13:11 32.902023 -116.548678 219 10399ft 287kts
17-Jul-20 13:12 32.844136 -116.606958 219 9554ft 265kts
17-Jul-20 13:13 32.788966 -116.662504 218 8335ft 259kts
17-Jul-20 13:14 32.748245 -116.732160 239 7080ft 261kts
17-Jul-20 13:15 32.713436 -116.805595 239 6079ft 249kts
17-Jul-20 13:16 32.689172 -116.876797 248 5432ft 228kts
17-Jul-20 13:17 32.674054 -116.945657 284 4086ft 215kts
17-Jul-20 13:18 32.687941 -117.001885 283 3510ft 182kts
17-Jul-20 13:19 32.699062 -117.047556 283 2612ft 134kts
17-Jul-20 13:21 32.706936 -117.079988 284 2046ft 129kts
17-Jul-20 13:22 32.714547 -117.111282 284 1437ft 128kts
17-Jul-20 13:23 32.721952 -117.142109 285 822ft 127kts
17-Jul-20 13:24 32.729297 -117.171979 285 213ft 126kts
17-Jul-20 13:25 32.734392 -117.193088 285 26ft 17kts
17-Jul-20 13:26 32.734102 -117.195469 253 26ft 4kts
17-Jul-20 13:27 32.733700 -117.197070 199 26ft 6kts
17-Jul-20 13:28 32.733384 -117.197720 283 26ft 0kts

Navigation Log

Ident Type
Flight plan parsing failed, navigation log unavailable